createdAt,value
2023-05-04T00:01:05.911Z,11.28
2023-05-04T00:03:35.456Z,11.65
2023-05-04T00:06:05.164Z,11.25
2023-05-04T00:08:35.020Z,11.63
2023-05-04T00:11:05.230Z,11.08
2023-05-04T00:13:34.734Z,11.40
2023-05-04T00:16:04.120Z,11.70
2023-05-04T00:18:33.461Z,11.63
2023-05-04T00:21:03.050Z,11.65
2023-05-04T00:23:32.327Z,12.70
2023-05-04T00:26:02.279Z,11.93
2023-05-04T00:28:31.584Z,11.97
2023-05-04T00:31:01.424Z,12.45
2023-05-04T00:33:30.735Z,11.90
2023-05-04T00:36:00.015Z,11.73
2023-05-04T00:38:29.303Z,12.60
2023-05-04T00:40:59.051Z,12.37
2023-05-04T00:43:28.670Z,12.98
2023-05-04T00:45:57.934Z,13.30
2023-05-04T00:48:27.720Z,12.47
2023-05-04T00:50:57.050Z,12.37
2023-05-04T00:53:27.115Z,13.85
2023-05-04T00:55:56.353Z,13.30
2023-05-04T00:58:26.408Z,14.18
2023-05-04T01:00:55.956Z,13.43
2023-05-04T01:03:27.018Z,14.10
2023-05-04T01:06:14.833Z,14.10
2023-05-04T01:08:49.865Z,13.65
2023-05-04T01:11:25.304Z,13.15
2023-05-04T01:13:55.413Z,13.72
2023-05-04T01:16:24.757Z,14.35
2023-05-04T01:18:54.240Z,13.98
2023-05-04T01:21:23.484Z,14.78
2023-05-04T01:23:53.124Z,13.80
2023-05-04T01:26:31.035Z,13.78
2023-05-04T01:29:07.507Z,14.10
2023-05-04T01:31:38.238Z,14.25
2023-05-04T01:34:09.018Z,14.05
2023-05-04T01:36:39.582Z,14.40
2023-05-04T01:39:10.670Z,14.13
2023-05-04T01:41:41.600Z,14.03
2023-05-04T01:44:11.075Z,14.38
2023-05-04T01:46:40.378Z,14.78
2023-05-04T01:49:09.806Z,14.68
2023-05-04T01:51:39.162Z,15.32
2023-05-04T01:54:08.613Z,14.65
2023-05-04T01:56:39.432Z,14.75
2023-05-04T01:59:08.693Z,15.00
2023-05-04T02:01:37.982Z,14.53
2023-05-04T02:04:07.616Z,15.15
2023-05-04T02:06:38.859Z,14.95
2023-05-04T02:09:08.203Z,14.78
2023-05-04T02:11:37.584Z,15.45
2023-05-04T02:14:06.925Z,14.70
2023-05-04T02:16:36.317Z,15.55
2023-05-04T02:19:06.284Z,15.10
2023-05-04T02:21:37.025Z,15.30
2023-05-04T02:24:07.679Z,14.78
2023-05-04T02:26:37.357Z,14.75
2023-05-04T02:29:06.710Z,15.80
2023-05-04T02:31:36.111Z,14.65
2023-05-04T02:34:05.551Z,14.25
2023-05-04T02:36:34.915Z,14.95
2023-05-04T02:39:04.354Z,14.73
2023-05-04T02:41:34.256Z,14.93
2023-05-04T02:44:03.509Z,15.10
2023-05-04T02:46:33.849Z,14.90
2023-05-04T02:49:03.098Z,15.13
2023-05-04T02:51:32.640Z,16.07
2023-05-04T02:54:02.078Z,15.58
2023-05-04T02:56:31.680Z,14.38
2023-05-04T02:59:01.208Z,15.00
2023-05-04T03:01:32.744Z,15.28
2023-05-04T03:04:01.672Z,15.35
2023-05-04T03:06:31.305Z,15.08
2023-05-04T03:09:01.252Z,15.28
2023-05-04T03:11:31.721Z,14.87
2023-05-04T03:14:01.019Z,15.25
2023-05-04T03:16:30.425Z,15.15
2023-05-04T03:18:59.835Z,15.45
2023-05-04T03:21:29.901Z,15.72
2023-05-04T03:23:59.904Z,14.55
2023-05-04T03:26:29.642Z,15.68
2023-05-04T03:28:59.696Z,15.48
2023-05-04T03:31:29.774Z,15.40
2023-05-04T03:33:59.317Z,14.90
2023-05-04T03:36:28.994Z,15.55
2023-05-04T03:38:58.394Z,15.32
2023-05-04T03:41:27.993Z,15.63
2023-05-04T03:43:57.253Z,14.47
2023-05-04T03:46:26.558Z,16.23
2023-05-04T03:48:55.889Z,15.60
2023-05-04T03:51:25.376Z,14.98
2023-05-04T03:53:54.654Z,15.43
2023-05-04T03:56:23.943Z,15.45
2023-05-04T03:58:53.221Z,15.28
2023-05-04T04:01:24.286Z,15.53
2023-05-04T04:03:53.912Z,15.93
2023-05-04T04:06:23.933Z,17.05
2023-05-04T04:08:54.097Z,17.57
2023-05-04T04:11:23.366Z,17.55
2023-05-04T04:13:53.223Z,17.05
2023-05-04T04:16:22.574Z,17.87
2023-05-04T04:18:52.418Z,18.73
2023-05-04T04:21:21.820Z,18.00
2023-05-04T04:23:51.213Z,20.43
2023-05-04T04:26:21.587Z,20.65
2023-05-04T04:28:51.004Z,21.90
2023-05-04T04:31:20.832Z,22.73
2023-05-04T04:33:53.150Z,22.13
2023-05-04T04:36:22.418Z,23.73
2023-05-04T04:38:52.440Z,23.62
2023-05-04T04:41:21.813Z,20.08
2023-05-04T04:43:51.147Z,18.55
2023-05-04T04:46:20.401Z,20.05
2023-05-04T04:48:50.220Z,18.73
2023-05-04T04:51:19.473Z,15.32
2023-05-04T04:53:49.132Z,15.50
2023-05-04T04:56:21.624Z,15.13
2023-05-04T04:58:51.835Z,14.93
2023-05-04T05:01:21.151Z,14.68
2023-05-04T05:03:50.588Z,15.13
2023-05-04T05:06:20.854Z,14.15
2023-05-04T05:08:50.157Z,14.47
2023-05-04T05:11:19.417Z,14.07
2023-05-04T05:13:49.138Z,14.63
2023-05-04T05:16:18.397Z,14.10
2023-05-04T05:18:47.991Z,14.40
2023-05-04T05:21:17.271Z,14.30
2023-05-04T05:23:47.074Z,14.05
2023-05-04T05:26:16.954Z,13.70
2023-05-04T05:28:46.361Z,13.40
2023-05-04T05:31:15.671Z,13.50
2023-05-04T05:33:45.077Z,14.70
2023-05-04T05:36:14.972Z,13.95
2023-05-04T05:38:44.587Z,13.65
2023-05-04T05:41:15.345Z,13.83
2023-05-04T05:43:44.911Z,14.07
2023-05-04T05:46:15.246Z,13.50
2023-05-04T05:48:44.797Z,14.25
2023-05-04T05:51:14.376Z,13.22
2023-05-04T05:53:45.127Z,13.15
2023-05-04T05:56:15.013Z,13.60
2023-05-04T05:58:44.356Z,13.95
2023-05-04T06:01:14.181Z,13.10
2023-05-04T06:03:43.840Z,14.23
2023-05-04T06:06:13.172Z,13.88
2023-05-04T06:08:43.085Z,13.43
2023-05-04T06:11:12.335Z,13.75
2023-05-04T06:13:41.951Z,13.50
2023-05-04T06:16:11.289Z,12.95
2023-05-04T06:18:40.971Z,13.53
2023-05-04T06:21:10.265Z,13.22
2023-05-04T06:23:39.914Z,13.43
2023-05-04T06:26:09.263Z,12.55
2023-05-04T06:28:38.891Z,13.83
2023-05-04T06:31:08.630Z,13.20
2023-05-04T06:33:39.226Z,13.50
2023-05-04T06:36:08.632Z,13.60
2023-05-04T06:38:39.140Z,12.75
2023-05-04T06:41:08.855Z,12.40
2023-05-04T06:43:42.113Z,12.90
2023-05-04T06:46:11.414Z,12.80
2023-05-04T06:48:41.597Z,13.38
2023-05-04T06:51:10.915Z,12.90
2023-05-04T06:53:40.316Z,12.40
2023-05-04T06:56:09.889Z,12.70
2023-05-04T06:58:39.635Z,12.47
2023-05-04T07:01:12.349Z,12.68
2023-05-04T07:03:41.675Z,11.12
2023-05-04T07:06:11.412Z,11.93
2023-05-04T07:08:40.893Z,11.75
2023-05-04T07:11:11.785Z,11.93
2023-05-04T07:13:41.160Z,11.88
2023-05-04T07:16:10.479Z,11.53
2023-05-04T07:18:40.416Z,10.50
2023-05-04T07:21:27.061Z,11.18
2023-05-04T07:23:44.177Z,10.50
2023-05-04T07:26:13.532Z,10.75
2023-05-04T07:28:44.040Z,11.28
2023-05-04T07:31:14.364Z,11.05
2023-05-04T07:33:43.747Z,10.70
2023-05-04T07:36:13.025Z,11.15
2023-05-04T07:38:42.301Z,11.50
2023-05-04T07:41:11.694Z,10.48
2023-05-04T07:43:41.241Z,10.43
2023-05-04T07:46:10.566Z,11.08
2023-05-04T07:48:39.870Z,10.32
2023-05-04T07:51:14.395Z,9.73
2023-05-04T07:53:43.959Z,9.70
2023-05-04T07:56:14.315Z,10.50
2023-05-04T07:58:43.554Z,9.80
2023-05-04T08:01:13.136Z,10.40
2023-05-04T08:03:42.729Z,9.50
2023-05-04T08:06:12.062Z,9.93
2023-05-04T08:08:42.056Z,8.90
2023-05-04T08:11:20.635Z,8.73
2023-05-04T08:13:50.612Z,8.33
2023-05-04T08:16:20.020Z,8.65
2023-05-04T08:18:49.589Z,9.00
2023-05-04T08:21:19.661Z,8.50
2023-05-04T08:23:49.757Z,8.63
2023-05-04T08:26:20.333Z,8.18
2023-05-04T08:28:49.877Z,9.55
2023-05-04T08:31:19.582Z,7.60
2023-05-04T08:33:48.924Z,8.45
2023-05-04T08:36:18.159Z,8.90
2023-05-04T08:38:47.951Z,8.35
2023-05-04T08:41:17.347Z,8.55
2023-05-04T08:43:48.829Z,8.75
2023-05-04T08:46:18.597Z,8.38
2023-05-04T08:48:48.154Z,8.08
2023-05-04T08:51:17.792Z,9.15
2023-05-04T08:53:47.569Z,8.78
2023-05-04T08:56:18.040Z,8.65
2023-05-04T08:58:52.708Z,8.68
2023-05-04T09:01:23.055Z,8.48
2023-05-04T09:03:53.078Z,8.23
2023-05-04T09:06:23.064Z,8.60
2023-05-04T09:08:52.328Z,8.73
2023-05-04T09:11:22.170Z,8.85
2023-05-04T09:13:51.567Z,9.13
2023-05-04T09:16:22.089Z,8.68
2023-05-04T09:18:51.802Z,8.48
2023-05-04T09:21:24.518Z,8.15
2023-05-04T09:23:53.942Z,8.15
2023-05-04T09:26:33.487Z,8.55
2023-05-04T09:29:15.843Z,8.93
2023-05-04T09:31:52.590Z,8.20
2023-05-04T09:34:22.334Z,8.65
2023-05-04T09:37:02.695Z,8.50
2023-05-04T09:39:32.276Z,8.20
2023-05-04T09:42:01.999Z,8.33
2023-05-04T09:44:33.037Z,8.18
2023-05-04T09:47:02.625Z,7.47
2023-05-04T09:49:39.092Z,7.87
2023-05-04T09:52:08.439Z,7.12
2023-05-04T09:54:39.352Z,7.05
2023-05-04T09:57:15.510Z,7.35
2023-05-04T09:59:45.565Z,7.35
2023-05-04T10:02:22.805Z,6.97
2023-05-04T10:04:46.865Z,6.65
2023-05-04T10:07:16.479Z,7.03
2023-05-04T10:09:46.025Z,7.53
2023-05-04T10:12:15.664Z,7.20
2023-05-04T10:14:47.240Z,7.35
2023-05-04T10:17:34.688Z,7.20
2023-05-04T10:20:37.500Z,6.85
2023-05-04T10:23:09.908Z,7.37
2023-05-04T10:26:15.812Z,7.30
2023-05-04T10:28:48.510Z,7.87
2023-05-04T10:31:18.430Z,7.70
2023-05-04T10:33:47.682Z,7.80
2023-05-04T10:36:17.467Z,7.35
2023-05-04T10:38:47.262Z,7.70
2023-05-04T10:41:17.835Z,7.58
2023-05-04T10:43:49.295Z,7.35
2023-05-04T10:46:26.885Z,7.50
2023-05-04T10:48:56.233Z,7.72
2023-05-04T10:51:35.633Z,9.05
2023-05-04T10:53:59.878Z,7.58
2023-05-04T10:56:29.840Z,7.47
2023-05-04T10:59:02.307Z,7.50
2023-05-04T11:01:32.076Z,7.60
2023-05-04T11:04:01.697Z,7.25
2023-05-04T11:06:31.021Z,8.00
2023-05-04T11:09:01.903Z,9.20
2023-05-04T11:11:31.701Z,8.25
2023-05-04T11:14:01.656Z,8.30
2023-05-04T11:16:31.548Z,8.08
2023-05-04T11:19:13.119Z,8.35
2023-05-04T11:21:42.449Z,8.55
2023-05-04T11:24:11.798Z,8.45
2023-05-04T11:26:49.436Z,8.25
2023-05-04T11:29:19.329Z,8.58
2023-05-04T11:31:58.033Z,8.93
2023-05-04T11:34:27.799Z,8.33
2023-05-04T11:36:57.760Z,9.35
2023-05-04T11:39:27.223Z,8.95
2023-05-04T11:41:57.131Z,8.58
2023-05-04T11:44:26.465Z,8.33
2023-05-04T11:46:56.712Z,8.95
2023-05-04T11:49:27.641Z,9.50
2023-05-04T11:52:08.009Z,10.05
2023-05-04T11:54:37.331Z,8.65
2023-05-04T11:57:06.589Z,8.58
2023-05-04T11:59:36.055Z,8.33
2023-05-04T12:02:05.527Z,8.60
2023-05-04T12:04:34.796Z,8.60
2023-05-04T12:07:08.810Z,8.83
2023-05-04T12:09:48.359Z,7.97
2023-05-04T12:12:20.270Z,7.83
2023-05-04T12:17:20.364Z,7.62
2023-05-04T12:19:52.631Z,7.40
2023-05-04T12:22:33.398Z,7.55
2023-05-04T12:25:03.042Z,7.42
2023-05-04T12:27:33.462Z,7.40
2023-05-04T12:30:03.023Z,8.30
2023-05-04T12:32:32.349Z,7.87
2023-05-04T12:35:01.689Z,8.15
2023-05-04T12:37:31.585Z,7.15
2023-05-04T12:40:01.444Z,6.97
2023-05-04T12:42:31.905Z,7.40
2023-05-04T12:45:01.206Z,9.45
2023-05-04T12:47:30.674Z,7.05
2023-05-04T12:50:02.175Z,6.97
2023-05-04T12:52:31.505Z,6.53
2023-05-04T12:55:01.233Z,6.50
2023-05-04T12:57:30.510Z,7.03
2023-05-04T13:00:00.764Z,6.72
2023-05-04T13:02:30.239Z,6.10
2023-05-04T13:04:59.648Z,6.70
2023-05-04T13:07:28.915Z,6.90
2023-05-04T13:09:58.607Z,5.97
2023-05-04T13:12:27.976Z,5.20
2023-05-04T13:14:58.126Z,5.97
2023-05-04T13:17:29.699Z,5.78
2023-05-04T13:19:58.996Z,5.80
2023-05-04T13:22:30.212Z,5.75
2023-05-04T13:24:59.831Z,5.50
2023-05-04T13:27:29.454Z,5.50
2023-05-04T13:30:00.398Z,5.70
2023-05-04T13:32:30.220Z,6.12
2023-05-04T13:34:59.746Z,6.33
2023-05-04T13:37:29.693Z,12.80
2023-05-04T13:40:00.602Z,6.03
2023-05-04T13:42:30.135Z,6.03
2023-05-04T13:44:59.479Z,5.70
2023-05-04T13:47:29.156Z,5.90
2023-05-04T13:49:58.480Z,6.10
2023-05-04T13:52:28.653Z,6.35
2023-05-04T13:54:57.914Z,5.30
2023-05-04T13:57:27.876Z,6.30
2023-05-04T14:00:07.044Z,6.28
2023-05-04T14:04:58.011Z,5.90
2023-05-04T14:07:27.283Z,6.40
2023-05-04T14:09:57.310Z,6.10
2023-05-04T14:12:27.467Z,6.30
2023-05-04T14:14:57.672Z,6.03
2023-05-04T14:17:27.229Z,6.25
2023-05-04T14:19:58.222Z,5.90
2023-05-04T14:22:28.770Z,5.97
2023-05-04T14:24:58.963Z,5.50
2023-05-04T14:27:29.960Z,5.53
2023-05-04T14:29:59.734Z,5.62
2023-05-04T14:32:29.212Z,5.35
2023-05-04T14:35:07.053Z,5.67
2023-05-04T14:37:38.107Z,5.40
2023-05-04T14:40:10.395Z,4.85
2023-05-04T14:42:40.350Z,5.20
2023-05-04T14:45:11.467Z,4.87
2023-05-04T14:47:42.248Z,5.70
2023-05-04T14:50:13.071Z,5.30
2023-05-04T14:52:42.345Z,4.90
2023-05-04T14:55:12.185Z,4.72
2023-05-04T14:57:42.926Z,4.97
2023-05-04T15:00:13.390Z,4.35
2023-05-04T15:02:42.950Z,5.15
2023-05-04T15:05:12.735Z,4.65
2023-05-04T15:07:42.083Z,4.65
2023-05-04T15:10:12.170Z,4.72
2023-05-04T15:12:41.908Z,4.50
2023-05-04T15:15:11.964Z,4.65
2023-05-04T15:17:41.299Z,4.83
2023-05-04T15:20:11.435Z,5.25
2023-05-04T15:22:40.904Z,4.40
2023-05-04T15:25:10.767Z,4.30
2023-05-04T15:27:40.890Z,4.37
2023-05-04T15:30:11.600Z,4.17
2023-05-04T15:32:40.877Z,4.08
2023-05-04T15:35:10.427Z,4.05
2023-05-04T15:37:39.676Z,3.70
2023-05-04T15:40:10.596Z,3.62
2023-05-04T15:42:40.055Z,3.25
2023-05-04T15:45:10.808Z,4.00
2023-05-04T15:47:40.177Z,3.37
2023-05-04T15:50:09.996Z,3.45
2023-05-04T15:52:39.902Z,4.40
2023-05-04T15:55:24.564Z,3.80
2023-05-04T15:57:41.568Z,3.87
2023-05-04T16:00:11.739Z,3.83
2023-05-04T16:02:41.121Z,3.52
2023-05-04T16:05:10.805Z,3.40
2023-05-04T16:07:40.046Z,3.37
2023-05-04T16:10:10.909Z,3.83
2023-05-04T16:12:41.296Z,3.55
2023-05-04T16:15:11.676Z,5.12
2023-05-04T16:17:41.138Z,5.78
2023-05-04T16:20:11.816Z,4.22
2023-05-04T16:22:41.046Z,3.60
2023-05-04T16:25:11.556Z,3.05
2023-05-04T16:27:41.211Z,2.83
2023-05-04T16:30:11.283Z,2.70
2023-05-04T16:32:40.567Z,3.27
2023-05-04T16:35:10.527Z,3.45
2023-05-04T16:37:40.553Z,3.37
2023-05-04T16:40:14.347Z,3.55
2023-05-04T16:42:44.132Z,2.70
2023-05-04T16:45:14.581Z,3.05
2023-05-04T16:47:44.640Z,2.62
2023-05-04T16:50:15.163Z,2.60
2023-05-04T16:52:45.274Z,2.85
2023-05-04T16:55:14.706Z,2.55
2023-05-04T16:57:44.273Z,2.95
2023-05-04T17:00:14.856Z,2.80
2023-05-04T17:02:44.597Z,2.70
2023-05-04T17:05:13.907Z,2.40
2023-05-04T17:07:44.440Z,2.60
2023-05-04T17:10:14.850Z,2.67
2023-05-04T17:12:44.239Z,2.40
2023-05-04T17:15:13.797Z,2.62
2023-05-04T17:17:43.373Z,2.45
2023-05-04T17:20:16.680Z,2.55
2023-05-04T17:22:46.543Z,2.40
2023-05-04T17:25:15.854Z,2.50
2023-05-04T17:27:45.287Z,2.50
2023-05-04T17:30:14.970Z,3.12
2023-05-04T17:32:44.637Z,2.40
2023-05-04T17:35:24.022Z,2.45
2023-05-04T17:37:45.675Z,2.75
2023-05-04T17:40:15.216Z,2.62
2023-05-04T17:42:45.032Z,3.05
2023-05-04T17:45:14.450Z,2.50
2023-05-04T17:47:45.262Z,2.80
2023-05-04T17:50:14.585Z,2.87
2023-05-04T17:52:43.896Z,2.40
2023-05-04T17:55:13.156Z,2.80
2023-05-04T17:57:42.817Z,2.85
2023-05-04T18:00:13.120Z,2.87
2023-05-04T18:02:42.697Z,2.42
2023-05-04T18:05:12.917Z,2.45
2023-05-04T18:07:42.572Z,2.52
2023-05-04T18:10:12.561Z,2.37
2023-05-04T18:12:42.357Z,3.15
2023-05-04T18:15:12.262Z,2.67
2023-05-04T18:17:41.845Z,2.60
2023-05-04T18:20:13.258Z,2.60
2023-05-04T18:22:42.580Z,2.75
2023-05-04T18:25:12.253Z,2.50
2023-05-04T18:27:41.833Z,2.70
2023-05-04T18:30:10.900Z,2.87
2023-05-04T18:32:39.987Z,2.80
2023-05-04T18:35:10.340Z,2.60
2023-05-04T18:37:41.117Z,3.42
2023-05-04T18:40:11.506Z,2.90
2023-05-04T18:42:41.143Z,3.17
2023-05-04T18:45:11.769Z,2.92
2023-05-04T18:47:41.043Z,2.77
2023-05-04T18:50:13.089Z,3.00
2023-05-04T18:52:42.575Z,2.83
2023-05-04T18:55:12.265Z,2.60
2023-05-04T18:57:42.172Z,2.72
2023-05-04T19:00:13.882Z,3.50
2023-05-04T19:02:43.721Z,3.10
2023-05-04T19:05:14.599Z,3.05
2023-05-04T19:07:44.397Z,3.17
2023-05-04T19:10:14.458Z,3.80
2023-05-04T19:12:44.420Z,4.12
2023-05-04T19:15:16.242Z,3.67
2023-05-04T19:17:45.555Z,3.77
2023-05-04T19:20:15.764Z,4.30
2023-05-04T19:22:46.592Z,4.35
2023-05-04T19:25:33.289Z,4.30
2023-05-04T19:27:49.093Z,4.97
2023-05-04T19:30:18.500Z,5.95
2023-05-04T19:32:48.014Z,4.75
2023-05-04T19:35:18.468Z,4.42
2023-05-04T19:37:48.030Z,4.58
2023-05-04T19:40:19.486Z,4.67
2023-05-04T19:42:48.969Z,4.53
2023-05-04T19:45:18.374Z,3.75
2023-05-04T19:47:48.452Z,3.72
2023-05-04T19:50:17.956Z,4.10
2023-05-04T19:52:47.692Z,4.00
2023-05-04T19:55:17.427Z,4.05
2023-05-04T19:57:48.609Z,3.90
2023-05-04T20:00:19.406Z,4.00
2023-05-04T20:02:49.584Z,4.05
2023-05-04T20:05:19.085Z,4.28
2023-05-04T20:07:48.919Z,4.20
2023-05-04T20:10:18.232Z,4.47
2023-05-04T20:12:47.900Z,4.20
2023-05-04T20:15:17.239Z,4.22
2023-05-04T20:17:46.565Z,4.42
2023-05-04T20:20:17.636Z,4.55
2023-05-04T20:22:49.209Z,4.70
2023-05-04T20:25:20.156Z,4.53
2023-05-04T20:27:51.359Z,3.85
2023-05-04T20:30:21.290Z,5.12
2023-05-04T20:32:50.615Z,4.80
2023-05-04T20:35:20.353Z,6.03
2023-05-04T20:37:49.957Z,5.17
2023-05-04T20:40:19.754Z,6.17
2023-05-04T20:42:49.685Z,5.37
2023-05-04T20:45:19.300Z,5.92
2023-05-04T20:47:49.441Z,7.50
2023-05-04T20:50:20.397Z,7.05
2023-05-04T20:52:50.224Z,6.90
2023-05-04T20:55:22.724Z,6.55
2023-05-04T21:00:22.004Z,7.15
2023-05-04T21:02:51.379Z,8.15
2023-05-04T21:05:20.850Z,8.13
2023-05-04T21:07:51.763Z,8.33
2023-05-04T21:10:22.220Z,8.38
2023-05-04T21:12:55.126Z,9.00
2023-05-04T21:15:26.638Z,8.23
2023-05-04T21:17:55.901Z,8.40
2023-05-04T21:20:26.173Z,8.80
2023-05-04T21:22:55.464Z,8.40
2023-05-04T21:25:25.350Z,8.13
2023-05-04T21:27:54.660Z,7.70
2023-05-04T21:30:24.071Z,8.20
2023-05-04T21:32:53.432Z,7.97
2023-05-04T21:35:23.278Z,8.28
2023-05-04T21:37:52.720Z,7.72
2023-05-04T21:40:22.138Z,8.13
2023-05-04T21:42:52.106Z,8.03
2023-05-04T21:45:21.455Z,7.85
2023-05-04T21:47:51.080Z,7.95
2023-05-04T21:50:20.383Z,8.03
2023-05-04T21:52:49.717Z,8.00
2023-05-04T21:55:19.763Z,7.67
2023-05-04T21:57:49.390Z,7.50
2023-05-04T22:00:19.309Z,7.75
2023-05-04T22:02:48.758Z,7.45
2023-05-04T22:05:19.732Z,7.00
2023-05-04T22:07:49.401Z,7.80
2023-05-04T22:10:19.297Z,7.28
2023-05-04T22:12:48.718Z,7.78
2023-05-04T22:15:18.506Z,8.13
2023-05-04T22:17:48.611Z,7.60
2023-05-04T22:20:18.627Z,8.35
2023-05-04T22:22:47.912Z,7.50
2023-05-04T22:25:19.833Z,6.42
2023-05-04T22:27:49.118Z,7.05
2023-05-04T22:30:18.537Z,7.12
2023-05-04T22:32:47.888Z,7.95
2023-05-04T22:35:17.613Z,6.50
2023-05-04T22:37:48.945Z,6.47
2023-05-04T22:40:18.506Z,6.30
2023-05-04T22:42:47.762Z,6.87
2023-05-04T22:45:19.443Z,6.97
2023-05-04T22:47:48.902Z,6.97
2023-05-04T22:50:18.606Z,7.40
2023-05-04T22:52:47.862Z,7.10
2023-05-04T22:55:17.149Z,7.45
2023-05-04T22:57:46.672Z,7.87
2023-05-04T23:00:16.824Z,7.40
2023-05-04T23:02:46.137Z,7.83
2023-05-04T23:05:16.024Z,7.33
2023-05-04T23:07:45.629Z,8.00
2023-05-04T23:10:14.973Z,7.83
2023-05-04T23:12:44.428Z,8.25
2023-05-04T23:15:14.420Z,8.05
2023-05-04T23:17:43.788Z,8.70
2023-05-04T23:20:13.772Z,7.90
2023-05-04T23:22:43.532Z,8.33
2023-05-04T23:25:13.112Z,8.78
2023-05-04T23:27:42.615Z,8.58
2023-05-04T23:30:12.385Z,8.53
2023-05-04T23:32:41.912Z,8.43
2023-05-04T23:35:11.549Z,9.18
2023-05-04T23:37:41.218Z,8.55
2023-05-04T23:40:11.159Z,9.25
2023-05-04T23:42:40.453Z,10.70
2023-05-04T23:45:10.606Z,10.00
2023-05-04T23:47:40.173Z,11.33
2023-05-04T23:50:10.793Z,10.72
2023-05-04T23:52:40.495Z,9.85
2023-05-04T23:55:10.529Z,9.40
2023-05-04T23:57:40.079Z,8.78
